Time;durP1;ratioP1;P1;durP2;ratioP2;P2;SDS_P1;SDS_P2;PMS_P1;PMS_P2;Temp;Humidity;BMP_temperature;BMP_pressure;BME280_temperature;BME280_humidity;BME280_pressure;Samples;Min_cycle;Max_cycle;Signal;HPM_P1;HPM_P2
2021/01/16 00:00:58;;;;;;;31.55;13.72;;;;;;;-8.99;60.85;100611.13;1771447;79;20986;-80
2021/01/16 00:03:26;;;;;;;33.23;15.80;;;;;;;-9.05;60.93;100619.47;1750525;81;21041;-83
2021/01/16 00:05:59;;;;;;;32.67;14.78;;;;;;;-9.08;60.95;100614.77;1750056;81;20955;-79
2021/01/16 00:08:32;;;;;;;32.20;13.98;;;;;;;-9.13;60.93;100615.09;1750340;81;20935;-80
2021/01/16 00:11:00;;;;;;;29.15;14.70;;;;;;;-9.19;61.03;100619.20;1750116;81;21193;-80
2021/01/16 00:13:34;;;;;;;34.85;14.60;;;;;;;-9.23;61.16;100620.38;1750560;80;21459;-83
2021/01/16 00:16:03;;;;;;;33.50;15.00;;;;;;;-9.27;61.23;100630.02;1750381;81;20915;-82
2021/01/16 00:18:31;;;;;;;35.13;16.32;;;;;;;-9.30;61.33;100627.44;1750648;80;21380;-81
2021/01/16 00:20:59;;;;;;;35.85;16.07;;;;;;;-9.33;61.35;100632.05;1750209;81;21102;-82
2021/01/16 00:23:28;;;;;;;33.08;15.65;;;;;;;-9.36;61.42;100631.96;1750361;81;21408;-82
2021/01/16 00:25:57;;;;;;;27.80;13.95;;;;;;;-9.39;61.47;100635.72;1750314;81;21069;-81
2021/01/16 00:28:29;;;;;;;25.48;13.43;;;;;;;-9.42;61.44;100629.31;1750401;81;21587;-82
2021/01/16 00:31:02;;;;;;;33.92;15.88;;;;;;;-9.45;61.48;100631.77;1750057;81;21022;-81
2021/01/16 00:33:32;;;;;;;27.85;13.53;;;;;;;-9.48;61.55;100627.91;1750014;80;20917;-81
2021/01/16 00:36:02;;;;;;;26.85;13.45;;;;;;;-9.53;61.58;100625.27;1750307;81;21250;-81
2021/01/16 00:38:31;;;;;;;29.18;14.20;;;;;;;-9.57;61.69;100626.03;1750450;81;21022;-82
2021/01/16 00:40:59;;;;;;;30.30;15.20;;;;;;;-9.62;61.77;100629.73;1750422;81;21081;-81
2021/01/16 00:43:27;;;;;;;25.25;12.78;;;;;;;-9.65;61.96;100634.76;1750371;81;21010;-81
2021/01/16 00:45:55;;;;;;;28.67;13.85;;;;;;;-9.67;62.02;100631.33;1750778;81;20967;-80
2021/01/16 00:48:24;;;;;;;26.55;13.03;;;;;;;-9.69;62.04;100634.63;1751150;81;22612;-81
2021/01/16 00:50:55;;;;;;;27.50;13.98;;;;;;;-9.75;62.14;100633.24;1751749;81;20965;-81
2021/01/16 00:53:31;;;;;;;32.98;13.43;;;;;;;-9.82;62.33;100628.44;1751746;81;20963;-82
2021/01/16 00:56:01;;;;;;;21.23;12.15;;;;;;;-9.86;62.56;100626.66;1752393;79;21002;-79
2021/01/16 00:58:30;;;;;;;26.10;12.85;;;;;;;-9.89;62.78;100631.63;1754000;79;20996;-81
2021/01/16 01:01:00;;;;;;;29.85;12.45;;;;;;;-9.89;62.88;100630.37;1751155;77;21030;-82
2021/01/16 01:03:31;;;;;;;28.25;14.33;;;;;;;-9.88;62.96;100637.17;1750512;80;20975;-83
2021/01/16 01:05:59;;;;;;;29.32;13.68;;;;;;;-9.90;63.08;100634.59;1747278;80;21038;-81
2021/01/16 01:08:30;;;;;;;29.20;13.90;;;;;;;-9.91;63.14;100635.42;1747265;80;21003;-80
2021/01/16 01:10:59;;;;;;;40.48;16.12;;;;;;;-9.92;63.15;100632.42;1747211;80;21066;-81
2021/01/16 01:13:26;;;;;;;23.77;13.25;;;;;;;-9.93;63.15;100628.19;1747229;80;21041;-82
2021/01/16 01:15:55;;;;;;;33.60;14.68;;;;;;;-9.96;63.14;100628.52;1747992;80;20931;-81
2021/01/16 01:18:23;;;;;;;29.52;13.48;;;;;;;-9.99;63.15;100620.84;1748101;80;21422;-82
2021/01/16 01:20:51;;;;;;;30.77;14.00;;;;;;;-10.03;63.26;100617.38;1747279;80;20963;-80
2021/01/16 01:23:20;;;;;;;28.62;13.13;;;;;;;-10.01;63.27;100617.84;1747198;80;21014;-81
2021/01/16 01:25:49;;;;;;;24.70;12.40;;;;;;;-10.00;63.24;100625.08;1747339;80;22003;-82
2021/01/16 01:28:17;;;;;;;27.73;13.25;;;;;;;-10.00;63.27;100618.73;1747249;80;21057;-80
2021/01/16 01:30:48;;;;;;;28.32;13.83;;;;;;;-10.00;63.29;100621.27;1775427;80;20963;-80
2021/01/16 01:33:16;;;;;;;50.80;15.30;;;;;;;-10.01;63.26;100624.61;1747074;80;21034;-81
2021/01/16 01:35:44;;;;;;;28.47;15.20;;;;;;;-10.02;63.25;100639.39;1747333;79;21057;-81
2021/01/16 01:38:17;;;;;;;26.48;12.98;;;;;;;-10.04;63.28;100633.42;1747333;80;20978;-82
2021/01/16 01:40:45;;;;;;;33.67;16.35;;;;;;;-10.07;63.32;100637.14;1746759;80;20974;-81
2021/01/16 01:43:13;;;;;;;35.90;15.80;;;;;;;-10.12;63.50;100639.98;1747096;80;20954;-82
2021/01/16 01:45:41;;;;;;;30.88;12.58;;;;;;;-10.15;63.57;100647.52;1747011;80;20915;-80
2021/01/16 01:48:11;;;;;;;25.10;12.03;;;;;;;-10.18;63.73;100650.85;1747153;80;21634;-82
2021/01/16 01:50:39;;;;;;;24.02;13.03;;;;;;;-10.20;63.85;100639.81;1747135;80;21952;-82
2021/01/16 01:53:07;;;;;;;28.60;13.10;;;;;;;-10.23;63.89;100635.50;1747069;80;21037;-79
2021/01/16 01:55:35;;;;;;;24.63;11.53;;;;;;;-10.23;63.96;100638.45;1747100;80;20930;-81
2021/01/16 01:58:05;;;;;;;29.00;12.20;;;;;;;-10.24;64.04;100640.13;1745553;80;21416;-81
2021/01/16 02:00:33;;;;;;;20.62;11.25;;;;;;;-10.20;64.09;100642.34;1748789;80;20942;-81
2021/01/16 02:03:01;;;;;;;23.27;12.70;;;;;;;-10.17;64.15;100655.09;1752111;79;21680;-81
2021/01/16 02:05:30;;;;;;;20.52;11.08;;;;;;;-10.16;64.06;100654.67;1752316;80;20986;-81
2021/01/16 02:07:59;;;;;;;25.85;12.58;;;;;;;-10.15;64.07;100650.06;1752391;80;21590;-80
2021/01/16 02:10:27;;;;;;;29.98;13.10;;;;;;;-10.16;64.02;100658.05;1752090;80;21033;-82
2021/01/16 02:12:56;;;;;;;24.45;11.90;;;;;;;-10.18;64.05;100665.18;1752265;80;20955;-82
2021/01/16 02:16:03;;;;;;;28.07;13.62;;;;;;;-10.19;64.00;100665.59;1704130;79;20988;-80
2021/01/16 02:18:41;;;;;;;19.37;11.35;;;;;;;-10.19;63.97;100667.28;1696706;83;21601;-79
2021/01/16 02:21:09;;;;;;;23.15;12.47;;;;;;;-10.18;63.89;100672.40;1696631;83;20953;-79
2021/01/16 02:23:48;;;;;;;23.02;11.83;;;;;;;-10.18;63.88;100664.80;1696589;83;21125;-78
2021/01/16 02:26:34;;;;;;;22.87;10.60;;;;;;;-10.18;63.77;100668.98;1673409;84;21529;-78
2021/01/16 02:29:08;;;;;;;20.27;11.28;;;;;;;-10.23;63.79;100662.53;1697085;83;21005;-80
2021/01/16 02:31:51;;;;;;;22.70;10.82;;;;;;;-10.28;63.77;100660.30;1697232;83;21024;-78
2021/01/16 02:34:23;;;;;;;22.52;10.82;;;;;;;-10.30;63.76;100677.18;1673532;84;20996;-79
2021/01/16 02:37:32;;;;;;;21.25;11.12;;;;;;;-10.40;63.81;100675.22;1673180;84;20992;-79
2021/01/16 02:40:38;;;;;;;26.95;13.18;;;;;;;-10.48;63.93;100670.81;1852425;77;23081;-80
2021/01/16 02:43:37;;;;;;;21.90;10.90;;;;;;;-10.56;64.03;100670.16;1788330;78;21018;-80
2021/01/16 02:46:28;;;;;;;26.17;12.58;;;;;;;-10.61;64.10;100663.71;1750248;81;20940;-80
2021/01/16 02:49:23;;;;;;;24.80;11.88;;;;;;;-10.61;64.14;100659.91;1852279;77;22698;-80
2021/01/16 02:52:09;;;;;;;20.12;10.80;;;;;;;-10.68;64.15;100674.09;1788144;78;21396;-80
2021/01/16 02:54:39;;;;;;;27.10;12.68;;;;;;;-10.69;64.14;100683.79;1720950;82;22644;-81
2021/01/16 02:57:11;;;;;;;22.73;11.60;;;;;;;-10.68;64.12;100683.38;1788278;78;21006;-81
2021/01/16 02:59:41;;;;;;;26.17;14.07;;;;;;;-10.69;64.08;100678.72;1720668;82;21417;-83
2021/01/16 03:02:12;;;;;;;32.53;13.55;;;;;;;-10.70;64.19;100679.94;1788171;78;20962;-82
2021/01/16 03:04:40;;;;;;;27.65;12.28;;;;;;;-10.68;64.13;100678.30;1720850;82;20982;-82
2021/01/16 03:07:11;;;;;;;23.45;12.88;;;;;;;-10.66;64.06;100684.27;1788469;78;22588;-82
2021/01/16 03:09:40;;;;;;;27.37;13.35;;;;;;;-10.61;64.03;100683.12;1788320;78;21033;-82
2021/01/16 03:12:08;;;;;;;27.52;13.93;;;;;;;-10.55;64.04;100692.17;1790111;78;21017;-80
2021/01/16 03:14:55;;;;;;;28.25;14.85;;;;;;;-10.50;63.91;100690.60;1723825;82;21046;-80
2021/01/16 03:17:26;;;;;;;32.40;14.80;;;;;;;-10.44;63.87;100692.89;1772508;78;20950;-80
2021/01/16 03:19:54;;;;;;;35.05;13.10;;;;;;;-10.34;63.77;100699.05;1789281;78;21080;-81
2021/01/16 03:22:28;;;;;;;35.23;16.05;;;;;;;-10.26;63.56;100696.69;1788901;78;20927;-81
2021/01/16 03:24:56;;;;;;;;;;;;;;;-10.25;63.44;100691.67;1790907;78;21009;-80
2021/01/16 03:27:25;;;;;;;36.13;16.20;;;;;;;-10.24;63.42;100684.50;1788577;78;20137;-80
2021/01/16 03:29:54;;;;;;;39.33;15.65;;;;;;;-10.22;63.24;100677.79;1788705;78;21372;-82
2021/01/16 03:32:23;;;;;;;38.65;16.90;;;;;;;-10.21;63.27;100678.64;1721563;82;22177;-80
2021/01/16 03:34:51;;;;;;;31.42;14.83;;;;;;;-10.17;63.24;100681.70;1763965;78;20958;-82
2021/01/16 03:37:20;;;;;;;32.50;15.30;;;;;;;-10.09;63.14;100687.84;1790016;78;21021;-81
2021/01/16 03:39:50;;;;;;;24.95;12.30;;;;;;;-10.03;62.99;100676.97;1721967;82;21010;-80
2021/01/16 03:42:18;;;;;;;25.48;12.98;;;;;;;-9.96;62.81;100684.31;1788619;78;21455;-80
2021/01/16 03:44:47;;;;;;;24.07;11.93;;;;;;;-9.93;62.64;100690.33;1721287;82;22713;-80
2021/01/16 03:47:15;;;;;;;24.55;11.00;;;;;;;-9.90;62.58;100698.00;1788490;78;20971;-81
2021/01/16 03:49:43;;;;;;;29.02;12.90;;;;;;;-9.84;62.55;100698.58;1720898;82;20967;-81
2021/01/16 03:52:11;;;;;;;23.95;12.18;;;;;;;-9.82;62.40;100697.78;1788323;78;21495;-82
2021/01/16 03:54:39;;;;;;;23.22;13.13;;;;;;;-9.81;62.20;100693.56;1696161;82;21093;-81
2021/01/16 03:57:07;;;;;;;22.62;12.05;;;;;;;-9.80;62.24;100692.34;1788096;78;21167;-81
2021/01/16 03:59:36;;;;;;;27.73;12.82;;;;;;;-9.74;62.09;100698.37;1720263;82;21066;-82
2021/01/16 04:02:04;;;;;;;25.90;15.03;;;;;;;-9.70;62.05;100697.63;1787703;78;21127;-82
2021/01/16 04:04:32;;;;;;;24.75;11.75;;;;;;;-9.65;61.90;100698.20;1720221;82;20986;-83
2021/01/16 04:07:00;;;;;;;24.35;11.75;;;;;;;-9.59;61.77;100698.73;1787587;78;20939;-83
2021/01/16 04:09:28;;;;;;;21.35;10.43;;;;;;;-9.56;61.48;100697.94;1787995;78;20971;-83
2021/01/16 04:11:56;;;;;;;21.37;11.88;;;;;;;-9.57;61.45;100705.97;1788055;78;21033;-82
2021/01/16 04:14:24;;;;;;;18.95;10.03;;;;;;;-9.60;61.27;100709.72;1720211;82;21393;-81
2021/01/16 04:16:53;;;;;;;19.45;10.00;;;;;;;-9.65;61.24;100712.54;1787711;78;20946;-82
2021/01/16 04:19:21;;;;;;;23.15;11.00;;;;;;;-9.70;61.27;100714.13;1720189;82;20963;-82
2021/01/16 04:21:49;;;;;;;19.45;10.00;;;;;;;-9.71;61.41;100717.08;1787699;78;22364;-81
2021/01/16 04:24:17;;;;;;;20.80;11.33;;;;;;;-9.67;61.48;100718.87;1787768;78;20974;-82
2021/01/16 04:26:49;;;;;;;20.23;10.65;;;;;;;-9.59;61.41;100716.50;1720108;82;21536;-83
2021/01/16 04:29:17;;;;;;;19.62;10.43;;;;;;;-9.53;61.25;100716.64;1787882;78;21029;-82
2021/01/16 04:31:47;;;;;;;21.48;10.32;;;;;;;-9.49;61.20;100717.17;1720212;82;21069;-83
2021/01/16 04:34:16;;;;;;;16.57;10.23;;;;;;;-9.45;61.18;100724.03;1787841;78;22166;-83
2021/01/16 04:36:44;;;;;;;17.77;9.45;;;;;;;-9.45;61.04;100718.96;1720388;82;21524;-84
2021/01/16 04:39:12;;;;;;;18.77;9.98;;;;;;;-9.43;61.03;100720.23;1787803;78;21388;-83
2021/01/16 04:41:40;;;;;;;19.50;9.35;;;;;;;-9.41;61.10;100721.13;1720433;82;21578;-84
2021/01/16 04:44:08;;;;;;;18.52;10.00;;;;;;;-9.38;60.89;100725.03;1787764;78;21101;-81
2021/01/16 04:46:36;;;;;;;18.25;9.63;;;;;;;-9.37;60.91;100729.27;1787680;78;21045;-81
2021/01/16 04:49:05;;;;;;;18.15;10.10;;;;;;;-9.37;60.88;100733.08;1776971;80;21493;-82
2021/01/16 04:51:43;;;;;;;43.83;13.93;;;;;;;-9.36;60.73;100739.01;1775220;80;21511;-83
2021/01/16 04:54:07;;;;;;;15.43;8.83;;;;;;;-9.38;60.72;100736.45;1774499;80;21014;-83
2021/01/16 04:56:36;;;;;;;27.02;13.35;;;;;;;-9.38;60.63;100742.80;1775106;78;21069;-82
2021/01/16 04:59:04;;;;;;;20.95;11.20;;;;;;;-9.37;60.60;100741.11;1749758;80;21173;-82
2021/01/16 05:01:32;;;;;;;19.10;8.93;;;;;;;-9.37;60.67;100747.47;1774990;80;20927;-82
2021/01/16 05:04:00;;;;;;;21.60;10.28;;;;;;;-9.34;60.78;100740.75;1774988;80;20955;-83
2021/01/16 05:06:29;;;;;;;22.40;11.20;;;;;;;-9.27;60.91;100743.02;1775034;80;21030;-83
2021/01/16 05:08:59;;;;;;;24.23;11.93;;;;;;;-9.24;60.70;100745.65;1775045;80;20987;-83
2021/01/16 05:11:37;;;;;;;18.35;10.15;;;;;;;-9.25;60.77;100740.98;1775059;78;22177;-84
2021/01/16 05:14:17;;;;;;;20.12;10.50;;;;;;;-9.25;60.84;100739.72;1749343;80;20962;-84
2021/01/16 05:16:56;;;;;;;20.95;10.28;;;;;;;-9.25;60.65;100742.26;1775000;80;20986;-83
2021/01/16 05:19:31;;;;;;;40.03;13.05;;;;;;;-9.27;60.53;100736.67;1772774;80;20958;-84
2021/01/16 05:22:00;;;;;;;20.80;11.45;;;;;;;-9.29;60.59;100745.94;1776083;80;20943;-82
2021/01/16 05:24:35;;;;;;;16.75;9.65;;;;;;;-9.34;60.63;100744.98;1776468;80;21082;-82
2021/01/16 05:27:05;;;;;;;16.00;9.18;;;;;;;-9.38;60.60;100750.42;1777448;80;20927;-80
2021/01/16 05:29:36;;;;;;;38.65;13.03;;;;;;;-9.42;60.79;100747.36;1777780;80;20951;-81
2021/01/16 05:32:05;;;;;;;33.78;15.30;;;;;;;-9.39;61.01;100754.61;1777916;80;21384;-82
2021/01/16 05:34:34;;;;;;;33.23;14.15;;;;;;;-9.35;61.04;100759.78;1777462;78;20934;-80
2021/01/16 05:37:03;;;;;;;41.90;16.73;;;;;;;-9.34;61.16;100754.72;1776956;80;22186;-83
2021/01/16 05:39:33;;;;;;;32.65;16.67;;;;;;;-9.31;61.20;100761.16;1776668;80;20983;-84
2021/01/16 05:42:06;;;;;;;29.52;15.10;;;;;;;-9.29;61.16;100762.44;1775586;80;21559;-84
2021/01/16 05:44:34;;;;;;;18.42;11.15;;;;;;;-9.30;61.04;100766.66;1774936;80;20970;-83
2021/01/16 05:47:03;;;;;;;18.95;11.78;;;;;;;-9.33;61.08;100766.61;1775532;80;20954;-84
2021/01/16 05:49:32;;;;;;;16.40;8.40;;;;;;;-9.33;61.00;100764.07;1724900;78;20989;-84
2021/01/16 05:52:08;;;;;;;16.75;8.10;;;;;;;-9.32;61.17;100770.84;1765967;78;21025;-84
2021/01/16 05:54:36;;;;;;;13.65;8.73;;;;;;;-9.30;61.00;100772.16;1700099;82;21068;-84
2021/01/16 05:57:04;;;;;;;16.55;8.88;;;;;;;-9.33;61.12;100788.19;1755640;78;20950;-84
2021/01/16 05:59:36;;;;;;;18.27;8.90;;;;;;;-9.33;61.04;100784.38;1725267;82;21056;-83
2021/01/16 06:02:04;;;;;;;17.70;9.13;;;;;;;-9.32;61.10;100778.88;1765711;78;21936;-81
2021/01/16 06:04:33;;;;;;;13.43;8.98;;;;;;;-9.29;61.02;100782.36;1673987;82;20986;-84
2021/01/16 06:07:06;;;;;;;15.23;9.15;;;;;;;-9.25;60.99;100784.16;1758057;78;21468;-83
2021/01/16 06:09:36;;;;;;;18.70;9.50;;;;;;;-9.25;60.94;100786.70;1720418;82;20983;-84
2021/01/16 06:12:05;;;;;;;16.10;9.38;;;;;;;-9.22;61.08;100790.98;1787964;78;20937;-86
2021/01/16 06:14:43;;;;;;;15.75;9.38;;;;;;;-9.19;61.04;100788.50;1730416;80;20995;-85
2021/01/16 06:17:14;;;;;;;16.07;8.85;;;;;;;-9.19;61.05;100789.77;1728090;81;21040;-86
2021/01/16 06:19:46;;;;;;;19.40;10.78;;;;;;;-9.14;61.04;100784.38;1754921;80;21508;-84
2021/01/16 06:22:17;;;;;;;13.38;9.30;;;;;;;-9.10;61.00;100796.75;1728576;81;20954;-85
2021/01/16 06:24:50;;;;;;;15.53;9.53;;;;;;;-9.06;61.01;100797.27;1755124;80;20970;-84
2021/01/16 06:27:24;;;;;;;15.23;8.97;;;;;;;-9.05;60.90;100796.01;1728510;81;21536;-84
2021/01/16 06:30:01;;;;;;;16.55;8.43;;;;;;;-9.01;60.76;100808.38;1755167;80;21417;-85
2021/01/16 06:32:29;;;;;;;19.65;10.65;;;;;;;-9.00;60.78;100806.30;1728278;81;21022;-84
2021/01/16 06:35:11;;;;;;;16.97;9.03;;;;;;;-8.98;60.87;100797.89;1728272;81;21495;-84
2021/01/16 06:37:50;;;;;;;20.88;10.88;;;;;;;-8.93;60.81;100800.95;1730054;80;21049;-83
2021/01/16 06:40:33;;;;;;;33.98;16.50;;;;;;;-8.85;61.11;100801.53;1728345;81;21100;-83
2021/01/16 06:43:05;;;;;;;31.57;15.15;;;;;;;-8.73;61.01;100795.88;1754996;79;20974;-83
2021/01/16 06:45:33;;;;;;;39.80;16.67;;;;;;;-8.63;60.79;100791.83;1726485;80;20951;-84
2021/01/16 06:48:02;;;;;;;40.33;17.10;;;;;;;-8.52;60.62;100795.87;1754891;80;21102;-83
2021/01/16 06:50:37;;;;;;;32.35;16.80;;;;;;;-8.44;60.43;100796.89;1754965;80;21520;-84
2021/01/16 06:53:13;;;;;;;29.72;14.10;;;;;;;-8.37;60.25;100803.35;1755016;80;20959;-83
2021/01/16 06:55:40;;;;;;;23.87;12.65;;;;;;;-8.33;60.06;100800.47;1753209;80;21105;-86
2021/01/16 06:58:18;;;;;;;21.70;12.43;;;;;;;-8.30;60.14;100810.69;1707173;80;21467;-82
2021/01/16 07:00:55;;;;;;;22.87;12.23;;;;;;;-8.26;60.23;100812.89;1754725;80;21077;-85
2021/01/16 07:03:27;;;;;;;33.88;13.62;;;;;;;-8.18;60.15;100813.88;1730515;80;20957;-82
2021/01/16 07:05:58;;;;;;;20.68;11.95;;;;;;;-8.08;60.10;100817.47;1755104;80;20996;-85
2021/01/16 07:08:29;;;;;;;19.32;12.00;;;;;;;-8.00;60.02;100812.12;1754920;80;21531;-86
2021/01/16 07:10:57;;;;;;;22.55;10.58;;;;;;;-7.91;59.90;100813.56;1729238;80;21010;-84
2021/01/16 07:13:25;;;;;;;27.15;14.53;;;;;;;-7.85;59.53;100815.34;1730520;80;21500;-85
2021/01/16 07:15:53;;;;;;;20.92;10.45;;;;;;;-7.81;59.42;100818.39;1755089;80;20954;-85
2021/01/16 07:18:22;;;;;;;18.90;11.12;;;;;;;-7.74;59.58;100817.24;1755466;80;20995;-83
2021/01/16 07:20:57;;;;;;;18.48;11.25;;;;;;;-7.61;59.47;100814.92;1784395;80;20958;-82
2021/01/16 07:23:27;;;;;;;34.70;25.20;;;;;;;-7.46;59.03;100828.34;1756165;80;21377;-84
2021/01/16 07:25:56;;;;;;;20.57;12.78;;;;;;;-7.40;58.78;100822.05;1756616;79;21049;-85
2021/01/16 07:28:24;;;;;;;23.60;18.07;;;;;;;-7.36;58.73;100823.82;1756419;80;20915;-85
2021/01/16 07:30:52;;;;;;;22.25;10.05;;;;;;;-7.27;58.72;100826.94;1756486;80;21895;-86
2021/01/16 07:33:21;;;;;;;23.85;13.28;;;;;;;-7.16;58.39;100817.38;1755439;80;20976;-86
2021/01/16 07:35:50;;;;;;;21.40;12.13;;;;;;;-7.03;58.60;100831.13;1755863;80;21388;-86
2021/01/16 07:38:18;;;;;;;24.25;14.18;;;;;;;-6.89;58.29;100837.31;1755734;80;21002;-87
2021/01/16 07:40:47;;;;;;;27.40;17.80;;;;;;;-6.74;58.05;100825.60;1755350;80;21006;-84
2021/01/16 07:43:30;;;;;;;22.93;13.03;;;;;;;-6.64;57.76;100830.00;1755033;80;21171;-83
2021/01/16 07:46:00;;;;;;;30.70;15.03;;;;;;;-6.58;57.67;100833.92;1755017;80;20998;-84
2021/01/16 07:48:32;;;;;;;25.70;12.90;;;;;;;-6.55;57.56;100828.84;1754937;80;21053;-82
2021/01/16 07:51:03;;;;;;;26.95;17.35;;;;;;;-6.44;57.34;100831.54;1754236;80;20954;-81
2021/01/16 07:53:33;;;;;;;26.00;13.70;;;;;;;-6.36;57.18;100832.90;1755283;80;21109;-82
2021/01/16 07:56:06;;;;;;;27.22;16.85;;;;;;;-6.24;57.11;100830.94;1730628;80;21183;-81
2021/01/16 07:58:43;;;;;;;20.17;12.28;;;;;;;-6.08;56.67;100830.27;1754906;80;20970;-83
2021/01/16 08:01:21;;;;;;;21.17;11.70;;;;;;;-6.06;56.24;100836.25;1755710;80;21523;-82
2021/01/16 08:04:19;;;;;;;23.65;13.35;;;;;;;-6.15;56.39;100847.20;1754434;80;20939;-80
2021/01/16 08:07:04;;;;;;;17.45;11.03;;;;;;;-6.21;56.80;100848.40;1755445;80;21520;-81
2021/01/16 08:09:54;;;;;;;16.40;9.58;;;;;;;-6.18;56.90;100857.39;1755134;80;21164;-84
2021/01/16 08:12:26;;;;;;;18.12;10.45;;;;;;;-6.09;56.95;100858.77;1754887;80;20962;-84
2021/01/16 08:15:03;;;;;;;14.98;9.48;;;;;;;-5.93;56.87;100849.55;1756155;80;21058;-83
2021/01/16 08:17:36;;;;;;;22.90;11.93;;;;;;;-5.82;56.38;100854.78;1732622;80;20946;-81
2021/01/16 08:20:18;;;;;;;21.75;12.15;;;;;;;-5.74;56.48;100852.29;1755706;80;21487;-81
2021/01/16 08:22:52;;;;;;;22.62;10.93;;;;;;;-5.71;56.36;100856.17;1755151;80;21179;-81
2021/01/16 08:25:25;;;;;;;21.60;12.35;;;;;;;-5.65;56.70;100853.27;1755387;80;21448;-82
2021/01/16 08:28:05;;;;;;;21.10;11.85;;;;;;;-5.50;56.42;100848.70;1755337;80;20974;-82
2021/01/16 08:30:50;;;;;;;40.10;18.42;;;;;;;-5.47;56.53;100842.36;1755074;80;20966;-81
2021/01/16 08:33:14;;;;;;;23.57;13.53;;;;;;;-5.34;56.39;100830.95;1753841;80;21369;-82
2021/01/16 08:35:48;;;;;;;45.15;22.25;;;;;;;-5.32;55.96;100835.23;1755008;80;20931;-77
2021/01/16 08:38:23;;;;;;;23.25;13.43;;;;;;;-5.35;56.24;100839.47;1753865;80;20982;-76
2021/01/16 08:41:09;;;;;;;33.48;16.77;;;;;;;-5.37;56.42;100838.60;1755159;80;20931;-78
2021/01/16 08:43:43;;;;;;;22.20;11.60;;;;;;;-5.41;56.38;100837.28;1753797;80;20958;-77
2021/01/16 08:46:33;;;;;;;23.62;13.13;;;;;;;-5.46;56.39;100842.78;1755098;80;21038;-82
2021/01/16 08:49:14;;;;;;;28.95;15.32;;;;;;;-5.54;56.70;100849.94;1756633;80;22167;-79
2021/01/16 08:51:45;;;;;;;21.97;12.18;;;;;;;-5.62;57.01;100843.48;1759627;80;20974;-77
2021/01/16 08:54:22;;;;;;;24.57;13.08;;;;;;;-5.74;57.13;100840.37;1759554;80;20943;-77
2021/01/16 08:56:54;;;;;;;18.05;11.08;;;;;;;-5.82;57.50;100848.39;1760147;80;20954;-79
2021/01/16 08:59:32;;;;;;;23.57;11.08;;;;;;;-5.81;57.69;100847.55;1760362;80;20939;-79
2021/01/16 09:02:13;;;;;;;23.07;11.63;;;;;;;-5.82;57.88;100854.78;1760619;80;20966;-81
2021/01/16 09:04:43;;;;;;;17.48;11.18;;;;;;;-5.84;57.90;100854.75;1761264;80;21113;-80
2021/01/16 09:07:20;;;;;;;29.37;12.70;;;;;;;-5.81;58.17;100852.65;1761094;80;21089;-86
2021/01/16 09:10:03;;;;;;;22.15;13.18;;;;;;;-5.76;58.21;100856.09;1760946;80;21030;-81
2021/01/16 09:12:39;;;;;;;26.00;13.72;;;;;;;-5.71;58.32;100857.45;1760895;80;21012;-79
2021/01/16 09:15:23;;;;;;;22.27;11.22;;;;;;;-5.70;58.26;100843.40;1760068;80;21455;-82
2021/01/16 09:18:13;;;;;;;22.65;11.00;;;;;;;-5.66;58.35;100843.02;1760238;80;20963;-79
2021/01/16 09:20:46;;;;;;;25.02;13.13;;;;;;;-5.65;58.51;100837.94;1760150;80;20995;-80
2021/01/16 09:23:37;;;;;;;33.63;13.95;;;;;;;-5.61;58.40;100837.52;1760074;80;20915;-81
2021/01/16 09:26:09;;;;;;;22.62;12.07;;;;;;;-5.66;58.31;100832.38;1760065;80;20955;-81
2021/01/16 09:29:04;;;;;;;19.70;9.80;;;;;;;-5.71;58.47;100833.19;1760057;80;21247;-81
2021/01/16 09:31:43;;;;;;;30.90;12.85;;;;;;;-5.77;58.24;100833.12;1759553;80;21626;-77
2021/01/16 09:34:20;;;;;;;24.65;12.47;;;;;;;-5.84;58.70;100829.22;1760110;80;20966;-78
2021/01/16 09:37:00;;;;;;;16.87;11.15;;;;;;;-5.81;58.60;100830.94;1760083;80;20978;-78
2021/01/16 09:39:30;;;;;;;22.48;12.63;;;;;;;-5.79;58.66;100840.75;1760233;80;20998;-80
2021/01/16 09:42:21;;;;;;;22.20;12.60;;;;;;;-5.76;58.78;100840.77;1760313;80;21196;-80
2021/01/16 09:44:55;;;;;;;25.48;14.20;;;;;;;-5.65;58.68;100829.39;1760087;80;20962;-82
2021/01/16 09:47:37;;;;;;;22.62;13.38;;;;;;;-5.48;58.60;100842.33;1760466;80;20955;-84
2021/01/16 09:50:13;;;;;;;17.95;9.28;;;;;;;-5.38;58.27;100830.48;1756217;80;21018;-73
2021/01/16 09:52:53;;;;;;;25.68;13.40;;;;;;;-5.30;57.71;100826.30;1754868;80;20974;-76
2021/01/16 09:55:30;;;;;;;25.95;15.75;;;;;;;-5.19;57.46;100823.41;1754338;80;21873;-75
2021/01/16 09:57:59;;;;;;;19.40;11.25;;;;;;;-5.07;57.78;100832.46;1754852;80;21045;-77
2021/01/16 10:00:33;;;;;;;20.15;12.93;;;;;;;-4.97;56.91;100828.25;1754824;80;21037;-79
2021/01/16 10:03:10;;;;;;;21.82;11.38;;;;;;;-5.00;56.83;100820.58;1754842;80;21037;-78
2021/01/16 10:05:43;;;;;;;24.70;13.58;;;;;;;-5.03;56.56;100826.50;1754929;80;20923;-77
2021/01/16 10:08:13;;;;;;;19.32;12.63;;;;;;;-5.01;56.84;100817.56;1754939;80;22136;-75
2021/01/16 10:10:48;;;;;;;27.87;16.15;;;;;;;-4.91;56.86;100822.31;1731316;80;20966;-74
2021/01/16 10:13:37;;;;;;;23.75;14.45;;;;;;;-4.81;56.72;100824.09;1754864;80;21045;-79
2021/01/16 10:18:41;;;;;;;21.93;12.55;;;;;;;-4.41;56.08;100816.63;1924374;74;23292;-78
2021/01/16 10:21:16;;;;;;;24.92;14.95;;;;;;;-4.33;55.75;100808.56;1776139;78;21097;-77
2021/01/16 10:24:22;;;;;;;28.27;17.05;;;;;;;-4.13;55.49;100812.91;1828961;77;22742;-77
2021/01/16 10:26:51;;;;;;;25.45;14.78;;;;;;;-4.17;55.41;100795.39;1790424;78;21005;-77
2021/01/16 10:29:30;;;;;;;23.22;11.50;;;;;;;-4.13;55.15;100802.23;1717241;81;21010;-76
2021/01/16 10:32:24;;;;;;;25.50;12.43;;;;;;;-4.10;54.76;100803.94;1732395;80;21025;-81
2021/01/16 10:34:55;;;;;;;17.07;11.20;;;;;;;-4.13;54.72;100802.23;1753406;80;20955;-77
2021/01/16 10:37:28;;;;;;;22.90;12.33;;;;;;;-4.16;54.69;100799.64;1760393;78;20954;-84
2021/01/16 10:39:55;;;;;;;18.45;12.93;;;;;;;-4.16;54.67;100799.64;1705273;81;21038;-77
2021/01/16 10:42:24;;;;;;;21.90;13.08;;;;;;;-4.18;54.48;100796.22;1695082;82;21183;-77
2021/01/16 10:44:52;;;;;;;25.85;14.20;;;;;;;-4.25;54.56;100785.53;1731123;81;20947;-78
2021/01/16 10:47:36;;;;;;;25.60;13.43;;;;;;;-4.30;55.23;100785.52;1761522;81;20931;-79
2021/01/16 10:50:10;;;;;;;23.22;12.82;;;;;;;-4.33;55.03;100771.88;1785293;78;21064;-79
2021/01/16 10:52:38;;;;;;;20.35;12.23;;;;;;;-4.41;55.17;100771.83;1784105;79;20965;-75
2021/01/16 10:55:13;;;;;;;29.10;15.70;;;;;;;-4.47;55.67;100772.69;1704864;83;21207;-79
2021/01/16 10:57:49;;;;;;;23.10;13.08;;;;;;;-4.48;55.93;100773.52;1737082;80;21053;-76
2021/01/16 11:00:20;;;;;;;22.60;14.33;;;;;;;-4.50;55.89;100766.69;1781432;80;21022;-76
2021/01/16 11:02:50;;;;;;;30.00;14.45;;;;;;;-4.52;56.25;100765.39;1747947;80;21022;-79
2021/01/16 11:05:25;;;;;;;28.45;15.75;;;;;;;-4.52;56.28;100760.70;1751295;80;21114;-77
2021/01/16 11:07:55;;;;;;;24.25;13.50;;;;;;;-4.56;56.74;100762.81;1786499;78;21141;-80
2021/01/16 11:10:32;;;;;;;27.40;15.80;;;;;;;-4.57;56.83;100759.41;1783971;78;21514;-84
2021/01/16 11:13:30;;;;;;;32.58;20.02;;;;;;;-4.60;57.17;100766.66;1779000;78;21001;-80
2021/01/16 11:16:19;;;;;;;23.38;13.80;;;;;;;-4.57;57.70;100759.84;1717202;82;21017;-77
2021/01/16 11:18:47;;;;;;;20.97;12.25;;;;;;;-4.54;57.59;100753.44;1783569;78;20969;-82
2021/01/16 11:21:40;;;;;;;23.27;13.58;;;;;;;-4.60;57.68;100753.86;1703496;83;21424;-82
2021/01/16 11:24:41;;;;;;;25.68;13.75;;;;;;;-4.68;57.67;100754.23;1699236;82;20987;-80
2021/01/16 11:27:09;;;;;;;17.90;12.03;;;;;;;-4.72;57.98;100749.95;1788036;78;21026;-78
2021/01/16 11:29:43;;;;;;;20.55;12.63;;;;;;;-4.74;57.58;100757.19;1720375;81;21046;-78
2021/01/16 11:32:18;;;;;;;23.60;12.63;;;;;;;-4.79;57.59;100755.46;1711469;81;21416;-77
2021/01/16 11:35:10;;;;;;;19.70;10.18;;;;;;;-4.79;57.98;100761.01;1748291;80;21061;-77
2021/01/16 11:37:52;;;;;;;17.00;10.75;;;;;;;-4.72;57.80;100765.30;1709593;81;21109;-78
2021/01/16 11:40:28;;;;;;;20.52;11.97;;;;;;;-4.67;57.83;100773.00;1801726;78;20950;-78